Time;durP1;ratioP1;P1;durP2;ratioP2;P2;SDS_P1;SDS_P2;PMS_P1;PMS_P2;Temp;Humidity;BMP_temperature;BMP_pressure;BME280_temperature;BME280_humidity;BME280_pressure;Samples;Min_cycle;Max_cycle;Signal;HPM_P1;HPM_P2
2022/06/14 00:01:52;;;;;;;1.35;0.75;;;10.80;99.90;;;;;;5076399;28;20484;-70
2022/06/14 00:04:18;;;;;;;2.63;0.90;;;10.80;99.90;;;;;;5076735;28;20614;-70
2022/06/14 00:06:43;;;;;;;3.60;0.65;;;10.80;99.90;;;;;;5059785;28;20059;-70
2022/06/14 00:09:09;;;;;;;5.18;1.10;;;10.90;99.90;;;;;;5059665;28;20419;-71
2022/06/14 00:11:37;;;;;;;1.85;1.00;;;10.70;99.90;;;;;;5076428;28;20040;-70
2022/06/14 00:14:05;;;;;;;5.05;1.15;;;11.00;99.90;;;;;;5076377;28;20178;-71
2022/06/14 00:16:32;;;;;;;2.60;0.82;;;10.70;99.90;;;;;;5076236;28;20526;-70
2022/06/14 00:18:58;;;;;;;1.73;0.80;;;10.80;99.90;;;;;;5076237;28;20039;-70
2022/06/14 00:21:24;;;;;;;4.95;0.73;;;10.80;99.90;;;;;;5076100;28;20133;-70
2022/06/14 00:23:50;;;;;;;2.72;0.95;;;10.70;99.90;;;;;;5075890;28;20126;-70
2022/06/14 00:26:16;;;;;;;4.70;1.00;;;10.70;99.90;;;;;;5059369;28;20638;-70
2022/06/14 00:28:43;;;;;;;2.10;0.95;;;10.60;99.90;;;;;;5075996;28;20051;-70
2022/06/14 00:31:16;;;;;;;2.28;0.90;;;10.70;99.90;;;;;;5075763;28;20038;-70
2022/06/14 00:33:42;;;;;;;7.43;0.80;;;10.60;99.90;;;;;;5076014;28;20043;-70
2022/06/14 00:36:30;;;;;;;2.83;1.20;;;10.70;99.90;;;;;;5075718;28;20400;-70
2022/06/14 00:39:04;;;;;;;4.28;0.80;;;10.60;99.90;;;;;;5058207;28;20044;-70
2022/06/14 00:41:43;;;;;;;2.17;1.00;;;10.90;99.90;;;;;;5075757;28;20465;-69
2022/06/14 00:44:20;;;;;;;2.83;0.90;;;10.50;99.90;;;;;;5076089;28;20127;-70
2022/06/14 00:46:58;;;;;;;4.13;1.15;;;10.50;99.90;;;;;;5058833;28;20040;-70
2022/06/14 00:49:34;;;;;;;2.30;1.02;;;10.50;99.90;;;;;;5072031;28;20056;-70
2022/06/14 00:52:08;;;;;;;1.05;0.80;;;10.50;99.90;;;;;;5072227;28;20040;-70
2022/06/14 00:54:40;;;;;;;2.38;1.05;;;10.50;99.90;;;;;;5072584;28;20040;-70
2022/06/14 00:57:12;;;;;;;4.05;1.15;;;10.70;99.90;;;;;;5072256;28;20083;-70
2022/06/14 00:59:56;;;;;;;2.50;0.95;;;10.50;99.90;;;;;;5071980;28;20102;-70
2022/06/14 01:02:26;;;;;;;1.63;0.75;;;10.60;99.90;;;;;;5071344;28;20044;-70
2022/06/14 01:04:54;;;;;;;6.90;1.00;;;11.00;99.90;;;;;;5071833;28;20036;-70
2022/06/14 01:07:29;;;;;;;1.27;0.70;;;11.00;99.90;;;;;;5055149;28;20047;-69
2022/06/14 01:10:06;;;;;;;1.85;0.80;;;10.40;99.90;;;;;;5072087;28;20048;-70
2022/06/14 01:12:36;;;;;;;7.97;1.17;;;10.30;99.90;;;;;;5072060;28;20040;-70
2022/06/14 01:15:12;;;;;;;1.75;1.08;;;10.70;99.90;;;;;;5071929;28;20380;-70
2022/06/14 01:17:42;;;;;;;1.55;0.85;;;10.30;99.90;;;;;;5071730;28;20115;-70
2022/06/14 01:20:09;;;;;;;1.17;0.88;;;10.60;99.90;;;;;;5072035;28;20047;-69
2022/06/14 01:22:36;;;;;;;2.55;0.80;;;10.30;99.90;;;;;;5071582;28;20445;-70
2022/06/14 01:25:02;;;;;;;3.83;1.00;;;10.30;99.90;;;;;;5055083;28;20044;-70
2022/06/14 01:27:31;;;;;;;4.13;1.10;;;10.30;99.90;;;;;;5071941;28;20048;-70
2022/06/14 01:30:09;;;;;;;2.35;0.52;;;10.30;99.90;;;;;;5071546;28;20055;-70
2022/06/14 01:32:57;;;;;;;3.30;0.95;;;10.20;99.90;;;;;;5071577;28;20044;-70
2022/06/14 01:35:26;;;;;;;2.30;0.90;;;10.20;99.90;;;;;;5071865;28;20097;-70
2022/06/14 01:37:54;;;;;;;2.63;1.15;;;10.20;99.90;;;;;;5071639;28;20055;-70
2022/06/14 01:40:50;;;;;;;1.08;0.80;;;10.40;99.90;;;;;;5071501;28;20045;-70
2022/06/14 01:43:19;;;;;;;1.77;0.90;;;10.50;99.90;;;;;;5061595;28;20048;-70
2022/06/14 01:46:09;;;;;;;2.45;1.20;;;10.40;99.90;;;;;;5071404;28;20055;-70
2022/06/14 01:48:47;;;;;;;2.83;1.35;;;10.20;99.90;;;;;;5071411;28;20068;-70
2022/06/14 01:54:15;;;;;;;2.47;0.83;;;10.50;99.90;;;;;;5071703;28;20067;-70
2022/06/14 01:56:47;;;;;;;1.52;0.75;;;10.10;99.90;;;;;;5071269;28;20120;-70
2022/06/14 01:59:25;;;;;;;2.45;1.40;;;10.40;99.90;;;;;;5071461;28;20040;-70
2022/06/14 02:02:12;;;;;;;2.92;1.17;;;10.10;99.90;;;;;;5071168;28;20048;-70
2022/06/14 02:04:59;;;;;;;2.53;0.80;;;10.10;99.90;;;;;;5071712;28;20051;-69
2022/06/14 02:07:34;;;;;;;2.97;1.02;;;10.00;99.90;;;;;;5071290;28;20460;-70
2022/06/14 02:10:06;;;;;;;6.50;1.15;;;10.30;99.90;;;;;;5071207;28;20041;-70
2022/06/14 02:12:56;;;;;;;4.82;1.00;;;10.10;99.90;;;;;;5072410;28;20047;-70
2022/06/14 02:15:45;;;;;;;3.78;0.93;;;10.80;99.90;;;;;;5075344;28;20411;-70
2022/06/14 02:18:31;;;;;;;1.88;0.90;;;10.20;99.90;;;;;;5074259;28;20044;-70
2022/06/14 02:21:11;;;;;;;1.92;1.13;;;10.00;99.90;;;;;;5075062;28;20044;-71
2022/06/14 02:23:48;;;;;;;3.10;1.20;;;9.90;99.90;;;;;;5075115;28;20076;-70
2022/06/14 02:26:26;;;;;;;2.08;1.10;;;10.30;99.90;;;;;;5075398;28;20051;-69
2022/06/14 02:29:18;;;;;;;1.80;0.88;;;10.10;99.90;;;;;;5074793;28;20097;-70
2022/06/14 02:31:53;;;;;;;1.88;0.90;;;10.30;99.90;;;;;;5054387;28;20139;-70
2022/06/14 02:34:27;;;;;;;2.08;1.00;;;10.30;99.90;;;;;;5058595;28;20123;-69
2022/06/14 02:37:11;;;;;;;3.22;1.00;;;11.10;99.90;;;;;;5074799;28;20119;-70
2022/06/14 02:39:43;;;;;;;1.23;0.88;;;10.00;99.90;;;;;;5058086;28;20044;-70
2022/06/14 02:42:25;;;;;;;6.03;1.30;;;10.00;99.90;;;;;;5074820;28;20043;-70
2022/06/14 02:45:20;;;;;;;3.40;1.73;;;10.00;99.90;;;;;;5058097;28;20051;-70
2022/06/14 02:47:51;;;;;;;2.58;1.55;;;10.20;99.90;;;;;;5074379;28;20403;-70
2022/06/14 02:50:28;;;;;;;4.22;1.20;;;10.00;99.90;;;;;;5074629;28;20481;-69
2022/06/14 02:52:57;;;;;;;1.80;1.20;;;10.50;99.90;;;;;;5074645;28;20036;-69
2022/06/14 02:55:30;;;;;;;5.43;1.55;;;10.40;99.90;;;;;;5074468;28;20381;-70
2022/06/14 02:58:06;;;;;;;1.95;0.88;;;10.20;99.90;;;;;;5075680;28;20400;-70
2022/06/14 03:00:39;;;;;;;5.15;1.63;;;10.00;99.90;;;;;;5074371;28;20045;-70
2022/06/14 03:03:26;;;;;;;2.90;1.00;;;10.10;99.90;;;;;;5074588;28;20457;-70
2022/06/14 03:05:57;;;;;;;1.15;1.05;;;10.40;99.90;;;;;;5074410;28;20546;-70
2022/06/14 03:08:31;;;;;;;3.03;1.17;;;10.30;99.90;;;;;;5074427;28;20041;-70
2022/06/14 03:11:15;;;;;;;5.53;1.23;;;10.00;99.90;;;;;;5057604;28;20406;-69
2022/06/14 03:14:10;;;;;;;1.08;0.80;;;10.10;99.90;;;;;;5074155;28;20435;-69
2022/06/14 03:17:00;;;;;;;3.53;1.15;;;10.00;99.90;;;;;;5074019;28;20402;-70
2022/06/14 03:19:48;;;;;;;3.00;1.13;;;10.00;99.90;;;;;;5074136;28;20040;-70
2022/06/14 03:22:29;;;;;;;1.25;1.00;;;10.00;99.90;;;;;;5074054;28;20139;-69
2022/06/14 03:25:02;;;;;;;1.25;0.88;;;10.10;99.90;;;;;;5073353;28;20080;-70
2022/06/14 03:27:41;;;;;;;3.70;1.25;;;10.30;99.90;;;;;;5073761;28;20098;-70
2022/06/14 03:30:21;;;;;;;1.77;1.23;;;10.00;99.90;;;;;;5073738;28;20131;-70
2022/06/14 03:33:03;;;;;;;2.53;1.40;;;10.00;99.90;;;;;;5073855;28;20036;-70
2022/06/14 03:35:50;;;;;;;1.60;0.95;;;10.10;99.90;;;;;;5073791;28;20041;-70
2022/06/14 03:38:34;;;;;;;3.92;1.30;;;10.00;99.90;;;;;;5073776;28;20044;-69
2022/06/14 03:41:01;;;;;;;2.05;1.13;;;10.00;99.90;;;;;;5056990;28;20091;-69
2022/06/14 03:43:29;;;;;;;2.60;1.23;;;10.30;99.90;;;;;;5057005;28;20499;-69
2022/06/14 03:46:10;;;;;;;1.92;1.25;;;10.10;99.90;;;;;;5073635;28;20048;-69
2022/06/14 03:48:39;;;;;;;2.42;1.27;;;10.10;99.90;;;;;;5073551;28;20508;-69
2022/06/14 03:51:19;;;;;;;1.52;1.00;;;10.30;99.90;;;;;;5073359;28;20131;-69
2022/06/14 03:54:19;;;;;;;2.42;1.15;;;9.90;99.90;;;;;;5073303;28;20041;-69
2022/06/14 03:56:47;;;;;;;2.30;0.90;;;10.10;99.90;;;;;;5073446;28;20040;-69
2022/06/14 03:59:33;;;;;;;2.17;1.20;;;10.20;99.90;;;;;;5073314;28;20036;-69
2022/06/14 04:02:07;;;;;;;2.85;1.35;;;10.10;99.90;;;;;;5073020;28;20048;-69
2022/06/14 04:05:01;;;;;;;3.13;1.13;;;10.10;99.90;;;;;;5073155;28;20113;-69
2022/06/14 04:07:41;;;;;;;2.05;1.10;;;10.20;99.90;;;;;;5073144;28;20063;-69
2022/06/14 04:10:25;;;;;;;2.75;1.17;;;10.20;99.90;;;;;;5074349;28;20128;-69
2022/06/14 04:13:09;;;;;;;3.70;1.40;;;;;;;;;;5072851;28;20040;-69
2022/06/14 04:15:54;;;;;;;5.47;1.17;;;;;;;;;;5072930;28;20040;-69
2022/06/14 04:18:35;;;;;;;2.45;1.08;;;;;;;;;;5073165;28;20051;-69
2022/06/14 04:21:21;;;;;;;1.17;0.88;;;;;;;;;;5073088;28;20511;-69
2022/06/14 04:23:47;;;;;;;2.78;1.17;;;;;;;;;;5072632;28;20052;-69
2022/06/14 04:26:16;;;;;;;1.63;1.17;;;;;;;;;;5072655;28;20055;-69
2022/06/14 04:28:45;;;;;;;4.35;1.65;;;;;;;;;;5072679;28;20045;-71
2022/06/14 04:31:15;;;;;;;3.47;1.45;;;;;;;;;;5072594;28;20125;-69
2022/06/14 04:33:52;;;;;;;1.73;1.05;;;;;;;;;;5072662;28;20068;-69
2022/06/14 04:36:23;;;;;;;1.58;0.98;;;;;;;;;;5071612;28;20123;-69
2022/06/14 04:38:49;;;;;;;1.35;1.05;;;;;;;;;;5072295;28;20044;-69
2022/06/14 04:41:23;;;;;;;3.30;1.08;;;;;;;;;;5072330;28;20098;-69
2022/06/14 04:44:01;;;;;;;5.55;1.23;;;;;;;;;;5072493;28;20079;-69
2022/06/14 04:46:51;;;;;;;2.05;0.88;;;;;;;;;;5072449;28;20052;-69
2022/06/14 04:49:24;;;;;;;2.30;0.88;;;;;;;;;;5056875;28;20054;-69
2022/06/14 04:52:02;;;;;;;1.08;0.85;;;;;;;;;;5072286;28;20051;-69
2022/06/14 04:54:32;;;;;;;5.30;0.90;;;;;;;;;;5072216;28;20071;-69
2022/06/14 04:57:09;;;;;;;2.50;0.90;;;11.20;99.90;;;;;;5072543;28;20028;-69
2022/06/14 04:59:42;;;;;;;2.25;0.95;;;11.30;99.90;;;;;;5071934;28;20070;-69
2022/06/14 05:02:23;;;;;;;2.00;1.00;;;;;;;;;;5072076;28;20040;-70
2022/06/14 05:04:55;;;;;;;1.95;1.05;;;;;;;;;;5071795;28;20041;-69
2022/06/14 05:07:29;;;;;;;4.45;1.30;;;11.60;99.90;;;;;;5071957;28;20117;-69
2022/06/14 05:09:58;;;;;;;3.88;1.27;;;11.60;99.90;;;;;;5055095;28;20116;-69
2022/06/14 05:12:35;;;;;;;1.00;0.88;;;11.80;99.90;;;;;;5072076;28;20531;-69
2022/06/14 05:15:20;;;;;;;4.72;1.13;;;11.80;99.90;;;;;;5055125;28;20094;-69
2022/06/14 05:17:54;;;;;;;3.42;1.05;;;11.90;99.90;;;;;;5071574;28;20051;-70
2022/06/14 05:20:42;;;;;;;2.70;0.90;;;11.90;99.90;;;;;;5071692;28;20037;-70
2022/06/14 05:23:16;;;;;;;2.33;0.90;;;12.00;99.90;;;;;;5071982;28;20473;-69
2022/06/14 05:25:55;;;;;;;2.88;1.13;;;12.10;99.90;;;;;;5055099;28;20131;-68
2022/06/14 05:28:44;;;;;;;3.75;1.02;;;12.10;99.90;;;;;;5071463;28;20136;-68
2022/06/14 05:31:32;;;;;;;1.80;0.88;;;12.20;99.90;;;;;;5071462;28;20092;-68
2022/06/14 05:34:20;;;;;;;1.90;0.85;;;12.30;99.90;;;;;;5071967;28;20086;-69
2022/06/14 05:37:08;;;;;;;2.55;0.85;;;12.50;99.90;;;;;;5071601;28;20043;-67
2022/06/14 05:39:45;;;;;;;1.95;1.08;;;12.60;99.90;;;;;;5071927;28;20135;-67
2022/06/14 05:42:25;;;;;;;2.92;1.15;;;12.70;99.90;;;;;;5071588;28;20044;-68
2022/06/14 05:44:57;;;;;;;1.47;0.90;;;12.80;99.90;;;;;;5071933;28;20062;-68
2022/06/14 05:47:30;;;;;;;3.53;1.17;;;12.80;99.90;;;;;;5071463;28;20048;-68
2022/06/14 05:49:59;;;;;;;5.47;0.98;;;;;;;;;;5074780;28;20036;-67
2022/06/14 05:52:43;;;;;;;2.13;0.90;;;13.00;99.90;;;;;;5074835;28;20454;-67
2022/06/14 05:55:17;;;;;;;1.75;0.95;;;13.10;99.90;;;;;;5074979;28;20067;-68
2022/06/14 05:58:08;;;;;;;1.92;1.00;;;13.20;99.90;;;;;;5058041;28;20051;-67
2022/06/14 06:00:50;;;;;;;1.80;1.10;;;13.30;99.90;;;;;;5075105;28;20043;-68
2022/06/14 06:03:36;;;;;;;3.05;1.10;;;13.40;99.90;;;;;;5074732;28;20067;-67
2022/06/14 06:06:07;;;;;;;5.57;0.90;;;13.50;99.90;;;;;;5074772;28;20041;-68
2022/06/14 06:08:42;;;;;;;2.17;1.13;;;13.70;99.90;;;;;;5074634;28;20081;-67
2022/06/14 06:11:17;;;;;;;2.17;0.75;;;;;;;;;;5074496;28;20442;-66
2022/06/14 06:13:51;;;;;;;1.40;0.70;;;13.80;99.90;;;;;;5057709;28;20044;-68
2022/06/14 06:16:38;;;;;;;3.63;1.33;;;13.90;99.90;;;;;;5074432;28;20094;-67
2022/06/14 06:19:25;;;;;;;1.33;0.70;;;14.00;99.90;;;;;;5074555;28;20048;-68
2022/06/14 06:22:02;;;;;;;2.40;0.93;;;14.10;99.90;;;;;;5074609;28;20391;-69
2022/06/14 06:24:28;;;;;;;5.20;0.98;;;14.20;99.90;;;;;;5074451;28;20043;-69
2022/06/14 06:27:03;;;;;;;2.15;0.60;;;14.40;99.90;;;;;;5074147;28;20044;-69
2022/06/14 06:29:52;;;;;;;2.45;0.77;;;14.40;99.90;;;;;;5074248;28;20071;-68
2022/06/14 06:32:19;;;;;;;3.58;1.08;;;14.50;99.90;;;;;;5059439;28;20048;-69
2022/06/14 06:34:46;;;;;;;1.40;0.75;;;14.60;99.90;;;;;;5074586;28;20048;-69
2022/06/14 06:37:28;;;;;;;1.88;0.95;;;14.70;99.90;;;;;;5074286;28;20047;-68
2022/06/14 06:40:10;;;;;;;4.75;0.82;;;14.70;99.90;;;;;;5074353;28;20181;-68
2022/06/14 06:42:45;;;;;;;0.93;0.50;;;14.70;99.90;;;;;;5074569;28;20043;-69
2022/06/14 06:45:16;;;;;;;1.58;0.52;;;14.80;99.90;;;;;;5057618;28;20044;-69
2022/06/14 06:47:58;;;;;;;6.22;0.95;;;14.90;99.90;;;;;;5073978;28;20116;-69
2022/06/14 06:50:37;;;;;;;0.68;0.68;;;15.00;99.90;;;;;;5074112;28;20044;-68
2022/06/14 06:53:12;;;;;;;1.30;0.57;;;15.10;99.90;;;;;;5074423;28;20036;-68
2022/06/14 06:55:43;;;;;;;8.15;0.77;;;15.20;99.90;;;;;;5057509;28;20040;-68
2022/06/14 06:58:38;;;;;;;1.77;0.68;;;15.40;99.90;;;;;;5074067;28;20135;-70
2022/06/14 07:01:27;;;;;;;2.25;0.68;;;15.50;99.90;;;;;;5064673;28;20108;-68
2022/06/14 07:04:19;;;;;;;1.15;0.82;;;15.60;99.90;;;;;;5043701;28;20066;-69
2022/06/14 07:06:53;;;;;;;1.80;0.68;;;15.60;99.90;;;;;;5077501;28;20044;-69
2022/06/14 07:09:41;;;;;;;1.30;0.63;;;15.70;99.90;;;;;;5077506;28;20083;-68
2022/06/14 07:12:29;;;;;;;0.43;0.43;;;15.70;99.90;;;;;;5077541;28;20487;-68
2022/06/14 07:15:05;;;;;;;1.35;0.60;;;15.70;99.90;;;;;;5077526;28;20044;-73
2022/06/14 07:17:43;;;;;;;0.93;0.50;;;15.90;99.90;;;;;;5077039;28;20031;-68
2022/06/14 07:20:29;;;;;;;3.13;0.98;;;16.10;99.90;;;;;;5076956;28;20045;-69
2022/06/14 07:23:16;;;;;;;0.60;0.60;;;16.20;99.90;;;;;;5077201;28;20040;-69
2022/06/14 07:26:06;;;;;;;1.88;0.80;;;16.20;99.90;;;;;;5077309;28;20099;-69
2022/06/14 07:28:47;;;;;;;1.92;0.80;;;16.10;99.90;;;;;;5076958;28;20040;-71
2022/06/14 07:31:38;;;;;;;1.13;0.55;;;16.20;99.90;;;;;;5076917;28;20062;-68
2022/06/14 07:34:05;;;;;;;1.95;0.57;;;16.20;99.90;;;;;;5076762;28;20123;-69
2022/06/14 07:36:42;;;;;;;1.55;0.80;;;16.20;99.90;;;;;;5077139;28;20119;-71
2022/06/14 07:39:37;;;;;;;3.30;0.82;;;16.00;99.90;;;;;;5076955;28;20043;-69
2022/06/14 07:42:18;;;;;;;1.52;0.70;;;15.80;99.90;;;;;;5077002;28;20094;-71
2022/06/14 07:44:43;;;;;;;0.77;0.55;;;15.70;99.90;;;;;;5076995;28;20040;-69
2022/06/14 07:47:24;;;;;;;0.95;0.55;;;15.70;99.90;;;;;;5077105;28;20032;-70
2022/06/14 07:49:56;;;;;;;2.90;0.85;;;15.70;99.90;;;;;;5059999;28;20048;-69
2022/06/14 07:52:30;;;;;;;1.90;0.70;;;15.80;99.90;;;;;;5077031;28;20123;-75
2022/06/14 07:55:15;;;;;;;1.85;0.85;;;16.10;99.90;;;;;;5060050;28;20047;-76
2022/06/14 07:57:45;;;;;;;1.33;0.57;;;16.40;99.90;;;;;;5060114;28;20078;-71
2022/06/14 08:03:41;;;;;;;2.30;0.60;;;16.60;99.90;;;;;;5094555;28;20104;-69
2022/06/14 08:06:12;;;;;;;5.15;0.73;;;16.80;99.90;;;;;;5076410;28;20051;-68
2022/06/14 08:08:42;;;;;;;2.38;0.73;;;16.80;99.90;;;;;;5059949;28;20484;-69
2022/06/14 08:11:16;;;;;;;1.15;0.50;;;16.90;99.90;;;;;;5075931;28;20040;-70
2022/06/14 08:13:49;;;;;;;2.20;0.60;;;17.10;99.90;;;;;;5076076;28;20036;-68
2022/06/14 08:16:18;;;;;;;0.47;0.47;;;17.10;99.90;;;;;;5076172;28;20438;-69
2022/06/14 08:18:50;;;;;;;1.25;0.52;;;17.10;99.90;;;;;;5076376;28;20561;-69
2022/06/14 08:21:30;;;;;;;1.55;0.77;;;17.00;99.90;;;;;;5076299;28;20048;-69
2022/06/14 08:24:14;;;;;;;3.83;0.60;;;17.20;99.90;;;;;;5076125;28;20105;-71
2022/06/14 08:26:46;;;;;;;3.40;0.90;;;;;;;;;;5076037;28;20126;-70
2022/06/14 08:29:33;;;;;;;1.95;0.68;;;;;;;;;;5075867;28;20047;-69
2022/06/14 08:31:59;;;;;;;1.52;0.60;;;;;;;;;;5059161;28;20039;-69
2022/06/14 08:34:29;;;;;;;1.75;0.60;;;;;;;;;;5059189;28;20040;-69
2022/06/14 08:37:08;;;;;;;0.70;0.43;;;;;;;;;;5075724;28;20040;-69
2022/06/14 08:39:37;;;;;;;2.38;0.55;;;;;;;;;;5059448;28;20119;-69
2022/06/14 08:42:09;;;;;;;0.80;0.65;;;;;;;;;;5075677;28;20086;-69
2022/06/14 08:44:39;;;;;;;5.40;0.90;;;;;;;;;;5075942;28;20044;-70
2022/06/14 08:47:05;;;;;;;0.65;0.55;;;;;;;;;;5076201;28;20062;-69
2022/06/14 08:49:37;;;;;;;1.95;0.68;;;;;;;;;;5075354;28;20059;-69
2022/06/14 08:52:29;;;;;;;1.40;0.55;;;;;;;;;;5075638;28;20055;-69
2022/06/14 08:55:00;;;;;;;0.75;0.50;;;;;;;;;;5075525;28;20380;-69
2022/06/14 08:57:44;;;;;;;2.90;0.47;;;;;;;;;;5059017;28;20438;-70
2022/06/14 09:00:11;;;;;;;1.50;0.63;;;;;;;;;;5075575;28;20051;-69
2022/06/14 09:02:55;;;;;;;1.30;0.55;;;;;;;;;;5075292;28;20048;-69
2022/06/14 09:05:42;;;;;;;1.30;0.55;;;;;;;;;;5093538;28;20490;-69
2022/06/14 09:08:12;;;;;;;1.45;0.63;;;;;;;;;;5075234;28;20039;-70
2022/06/14 09:10:57;;;;;;;0.88;0.52;;;;;;;;;;5075421;28;20453;-69
2022/06/14 09:13:32;;;;;;;1.38;0.43;;;;;;;;;;5075508;28;20090;-69
2022/06/14 09:16:01;;;;;;;0.85;0.47;;;;;;;;;;5074969;28;20123;-69
2022/06/14 09:18:46;;;;;;;1.65;0.77;;;;;;;;;;5074950;28;20032;-69
2022/06/14 09:21:31;;;;;;;1.92;0.60;;;;;;;;;;5058294;28;20040;-70
2022/06/14 09:24:21;;;;;;;0.80;0.32;;;;;;;;;;5074407;28;20071;-71
2022/06/14 09:27:02;;;;;;;0.77;0.50;;;;;;;;;;5074882;28;20058;-69
2022/06/14 09:29:47;;;;;;;0.60;0.50;;;;;;;;;;5058193;28;20470;-69
2022/06/14 09:33:09;;;;;;;1.10;0.70;;;;;;;;;;5074980;28;20511;-70
2022/06/14 09:35:24;;;;;;;;;;;;;;;;;;5075247;28;20475;-69
2022/06/14 09:38:00;;;;;;;2.97;0.90;;;;;;;;;;5058222;28;20010;-69
2022/06/14 09:40:29;;;;;;;1.40;0.60;;;;;;;;;;5074585;28;20047;-70
2022/06/14 09:43:14;;;;;;;1.67;0.50;;;;;;;;;;5074809;28;20525;-70
2022/06/14 09:45:41;;;;;;;2.83;0.60;;;;;;;;;;5074580;28;20126;-69
2022/06/14 09:48:16;;;;;;;1.35;0.60;;;;;;;;;;5074813;28;20052;-70
2022/06/14 09:51:11;;;;;;;0.70;0.70;;;18.90;99.90;;;;;;5074473;28;20044;-69
2022/06/14 09:53:56;;;;;;;3.70;0.50;;;18.90;99.90;;;;;;5074726;28;20100;-69
2022/06/14 09:56:41;;;;;;;0.93;0.50;;;18.80;99.90;;;;;;5057985;28;20036;-69
2022/06/14 09:59:09;;;;;;;0.40;0.40;;;18.80;99.90;;;;;;5074564;28;20044;-69
2022/06/14 10:02:07;;;;;;;0.65;0.32;;;18.70;99.90;;;;;;5074539;28;20048;-69
2022/06/14 10:04:58;;;;;;;1.80;0.73;;;18.50;99.90;;;;;;5057772;28;20071;-70
2022/06/14 10:07:36;;;;;;;0.88;0.52;;;18.40;99.90;;;;;;5074472;28;20040;-69
2022/06/14 10:10:02;;;;;;;1.83;0.60;;;18.10;99.90;;;;;;5057893;28;20044;-69
2022/06/14 10:12:50;;;;;;;1.02;0.50;;;18.00;99.90;;;;;;5074557;28;20036;-69
2022/06/14 10:15:21;;;;;;;4.25;0.70;;;17.80;99.90;;;;;;5026089;28;20048;-68
2022/06/14 10:18:06;;;;;;;0.40;0.40;;;17.70;99.90;;;;;;5074285;28;20044;-69
2022/06/14 10:20:58;;;;;;;1.05;0.70;;;17.80;99.90;;;;;;5074354;28;20054;-69
2022/06/14 10:23:42;;;;;;;1.00;0.60;;;17.80;99.90;;;;;;5074457;28;20040;-69
2022/06/14 10:29:50;;;;;;;1.85;0.90;;;18.60;99.90;;;;;;5074044;28;20052;-69
2022/06/14 10:32:40;;;;;;;3.60;0.70;;;18.90;99.90;;;;;;5074163;28;20040;-70
2022/06/14 10:35:20;;;;;;;0.40;0.40;;;19.00;99.90;;;;;;5076102;28;20043;-70
2022/06/14 10:38:10;;;;;;;2.85;0.60;;;19.40;99.90;;;;;;5078471;28;20518;-70
2022/06/14 10:41:06;;;;;;;0.70;0.40;;;19.50;99.90;;;;;;5077830;28;20078;-71
2022/06/14 10:43:48;;;;;;;0.93;0.43;;;19.40;99.90;;;;;;5078272;28;20044;-71
2022/06/14 10:46:28;;;;;;;0.70;0.50;;;19.30;99.90;;;;;;5078092;28;20052;-70
2022/06/14 10:49:20;;;;;;;0.45;0.35;;;19.00;99.90;;;;;;5077786;28;20055;-70
2022/06/14 10:51:55;;;;;;;0.95;0.60;;;19.00;99.90;;;;;;5077718;28;20047;-70
2022/06/14 10:54:41;;;;;;;1.00;0.60;;;18.90;99.90;;;;;;5061277;28;20036;-70
2022/06/14 10:57:22;;;;;;;2.35;0.50;;;18.70;99.90;;;;;;5077638;28;20036;-69
2022/06/14 11:00:04;;;;;;;1.40;0.68;;;18.70;99.90;;;;;;5077891;28;20046;-69
2022/06/14 11:02:59;;;;;;;2.70;0.60;;;18.70;99.90;;;;;;5077462;28;20070;-70
2022/06/14 11:05:29;;;;;;;1.80;0.70;;;18.70;99.90;;;;;;5077582;28;20067;-70
2022/06/14 11:07:55;;;;;;;;;;;18.80;99.90;;;;;;5077856;28;20452;-71
2022/06/14 11:10:41;;;;;;;0.40;0.40;;;18.90;99.90;;;;;;5077408;28;20014;-71
2022/06/14 11:13:38;;;;;;;0.60;0.45;;;19.10;99.90;;;;;;5077211;28;20043;-70
2022/06/14 11:16:22;;;;;;;1.10;0.50;;;19.20;99.90;;;;;;5070196;28;20052;-69
2022/06/14 11:19:06;;;;;;;0.73;0.40;;;19.40;99.90;;;;;;5077186;28;20036;-70
2022/06/14 11:21:51;;;;;;;1.35;0.50;;;19.70;99.90;;;;;;5077061;28;20051;-70
2022/06/14 11:24:25;;;;;;;1.65;0.50;;;20.10;99.90;;;;;;5076931;28;20078;-69
2022/06/14 11:27:03;;;;;;;3.72;0.70;;;20.10;99.90;;;;;;5077301;28;20044;-68
2022/06/14 11:30:12;;;;;;;1.27;0.40;;;20.10;99.90;;;;;;5077007;28;20052;-68
2022/06/14 11:33:01;;;;;;;3.08;0.57;;;19.90;99.90;;;;;;5076894;28;20067;-68
2022/06/14 11:35:30;;;;;;;0.55;0.47;;;19.80;99.90;;;;;;5014791;28;20051;-68
2022/06/14 11:38:08;;;;;;;0.52;0.32;;;19.70;99.90;;;;;;5076790;28;20403;-68
2022/06/14 11:40:37;;;;;;;1.05;0.50;;;19.70;99.90;;;;;;5076778;28;20128;-67
2022/06/14 11:43:16;;;;;;;0.63;0.47;;;19.70;99.90;;;;;;5095118;28;20063;-67
2022/06/14 11:46:19;;;;;;;0.88;0.40;;;19.50;99.90;;;;;;5076226;28;20048;-69
2022/06/14 11:49:01;;;;;;;1.15;0.55;;;19.40;99.90;;;;;;5043289;28;20060;-68
2022/06/14 11:51:48;;;;;;;1.38;0.82;;;19.20;99.90;;;;;;5073263;28;20048;-68
2022/06/14 11:54:25;;;;;;;1.75;0.60;;;19.10;99.90;;;;;;5056403;28;20094;-68
2022/06/14 11:57:12;;;;;;;1.50;0.40;;;19.20;99.90;;;;;;5072968;28;20037;-67
2022/06/14 12:00:15;;;;;;;0.70;0.55;;;19.40;99.90;;;;;;5072945;28;20037;-67
2022/06/14 12:03:12;;;;;;;1.45;0.65;;;19.50;99.90;;;;;;5072782;28;20040;-68
2022/06/14 12:05:44;;;;;;;0.60;0.50;;;19.50;99.90;;;;;;5073078;28;20040;-68
2022/06/14 12:08:31;;;;;;;1.52;0.65;;;19.70;99.90;;;;;;5072887;28;20047;-68
2022/06/14 12:11:14;;;;;;;2.10;0.75;;;19.70;99.90;;;;;;5072578;28;20044;-68
2022/06/14 12:13:46;;;;;;;1.05;0.40;;;19.80;99.90;;;;;;5073004;28;20500;-69
2022/06/14 12:16:47;;;;;;;0.60;0.40;;;19.80;99.90;;;;;;5055963;28;20119;-69
2022/06/14 12:19:26;;;;;;;0.40;0.40;;;20.00;99.90;;;;;;5010151;28;20067;-68
2022/06/14 12:22:33;;;;;;;1.38;0.50;;;20.00;99.90;;;;;;5073849;28;20043;-68
2022/06/14 12:28:26;;;;;;;2.03;0.70;;;20.40;99.90;;;;;;5051949;28;20055;-68
2022/06/14 12:30:59;;;;;;;0.65;0.40;;;20.40;99.90;;;;;;5056528;28;20174;-70
2022/06/14 12:33:33;;;;;;;1.02;0.60;;;20.50;99.90;;;;;;5072383;28;20056;-69
2022/06/14 12:36:23;;;;;;;0.47;0.45;;;20.50;99.90;;;;;;5072329;28;20036;-68
2022/06/14 12:38:54;;;;;;;3.03;0.52;;;20.40;99.90;;;;;;5072050;28;20083;-69
2022/06/14 12:41:40;;;;;;;;;;;20.20;99.90;;;;;;5055874;28;20048;-68
2022/06/14 12:44:41;;;;;;;0.95;0.57;;;20.00;99.90;;;;;;5071987;28;19968;-69
2022/06/14 12:47:16;;;;;;;1.50;0.60;;;19.90;99.90;;;;;;5071994;28;20448;-69
2022/06/14 12:49:46;;;;;;;0.40;0.40;;;19.90;99.90;;;;;;5055159;28;20412;-69
2022/06/14 12:52:37;;;;;;;0.75;0.40;;;19.90;99.90;;;;;;5055595;28;20381;-69
2022/06/14 12:55:29;;;;;;;;;;;19.80;99.90;;;;;;5072297;28;20075;-69
2022/06/14 12:57:58;;;;;;;2.45;0.43;;;19.80;99.90;;;;;;5068182;28;20368;-69
2022/06/14 13:00:45;;;;;;;1.85;0.75;;;19.70;99.90;;;;;;5071686;28;20098;-69
2022/06/14 13:03:35;;;;;;;0.60;0.38;;;19.70;99.90;;;;;;5055162;28;20044;-68
2022/06/14 13:06:21;;;;;;;1.30;0.70;;;19.60;99.90;;;;;;5071898;28;20049;-70
2022/06/14 13:08:57;;;;;;;1.92;0.63;;;19.60;99.90;;;;;;5012236;28;20122;-70
2022/06/14 13:11:46;;;;;;;0.38;0.38;;;19.50;99.90;;;;;;5071515;28;20048;-71
2022/06/14 13:14:30;;;;;;;0.65;0.50;;;19.60;99.90;;;;;;5071660;28;20094;-70
2022/06/14 13:17:34;;;;;;;0.30;0.30;;;19.50;99.90;;;;;;5071680;28;20555;-69
2022/06/14 13:20:28;;;;;;;2.55;0.40;;;19.50;99.90;;;;;;5071829;28;20041;-69
2022/06/14 13:23:23;;;;;;;4.60;0.57;;;19.50;99.90;;;;;;5071379;28;20053;-69
2022/06/14 13:26:01;;;;;;;0.90;0.60;;;19.50;99.90;;;;;;5029457;28;20102;-69
2022/06/14 13:28:44;;;;;;;0.90;0.30;;;19.60;99.90;;;;;;5071302;28;20051;-70
2022/06/14 13:31:54;;;;;;;0.50;0.50;;;19.50;99.90;;;;;;5071344;28;20047;-69
2022/06/14 13:34:49;;;;;;;0.57;0.32;;;19.60;99.90;;;;;;5054494;28;20040;-69
2022/06/14 13:37:43;;;;;;;0.30;0.30;;;19.70;99.90;;;;;;5071513;28;20041;-70
2022/06/14 13:40:30;;;;;;;1.33;0.50;;;19.90;99.90;;;;;;5071203;28;20047;-70
2022/06/14 13:43:08;;;;;;;1.20;0.60;;;19.80;99.90;;;;;;5071869;28;20480;-69
2022/06/14 13:45:52;;;;;;;0.90;0.60;;;19.80;99.90;;;;;;5071414;28;20040;-69
2022/06/14 13:48:39;;;;;;;3.45;0.50;;;19.80;99.90;;;;;;5054183;28;20056;-69
2022/06/14 13:51:23;;;;;;;1.67;0.65;;;19.80;99.90;;;;;;5071256;28;20056;-70
2022/06/14 13:54:08;;;;;;;2.25;0.60;;;19.90;99.90;;;;;;5054286;28;20044;-68
2022/06/14 13:56:48;;;;;;;1.33;0.60;;;19.90;99.90;;;;;;5071148;28;20381;-67
2022/06/14 13:59:22;;;;;;;1.98;0.47;;;19.90;99.90;;;;;;5054194;28;20044;-68
2022/06/14 14:01:58;;;;;;;0.88;0.45;;;19.90;99.90;;;;;;5070773;28;20067;-66
2022/06/14 14:04:54;;;;;;;7.03;0.90;;;19.90;99.90;;;;;;5071528;28;20044;-67
2022/06/14 14:07:37;;;;;;;0.95;0.63;;;20.00;99.90;;;;;;5071474;28;20040;-67
2022/06/14 14:10:41;;;;;;;0.45;0.40;;;20.00;99.90;;;;;;5058266;28;20462;-67
2022/06/14 14:13:10;;;;;;;0.47;0.40;;;20.20;99.90;;;;;;5058460;28;20036;-67
2022/06/14 14:15:49;;;;;;;0.40;0.40;;;20.20;99.90;;;;;;5058223;28;20041;-67
2022/06/14 14:18:51;;;;;;;1.33;0.50;;;20.30;99.90;;;;;;5075151;28;20047;-68
2022/06/14 14:21:34;;;;;;;1.58;0.77;;;20.30;99.90;;;;;;5058450;28;20051;-67
2022/06/14 14:24:15;;;;;;;1.33;0.40;;;20.60;99.90;;;;;;5074949;28;20048;-67